sensor_id;sensor_type;location;lat;lon;timestamp;P1;durP1;ratioP1;P2;durP2;ratioP2
67352;SDS011;54238;52.278;21.056;2023-09-30T00:01:58;18.00;;;11.90;;
67352;SDS011;54238;52.278;21.056;2023-09-30T00:04:26;21.20;;;13.20;;
67352;SDS011;54238;52.278;21.056;2023-09-30T00:06:56;20.30;;;11.90;;
67352;SDS011;54238;52.278;21.056;2023-09-30T00:09:28;16.90;;;12.20;;
67352;SDS011;54238;52.278;21.056;2023-09-30T00:11:58;17.50;;;12.40;;
67352;SDS011;54238;52.278;21.056;2023-09-30T00:14:26;15.50;;;12.10;;
67352;SDS011;54238;52.278;21.056;2023-09-30T00:16:53;18.30;;;12.40;;
67352;SDS011;54238;52.278;21.056;2023-09-30T00:19:25;19.20;;;12.40;;
67352;SDS011;54238;52.278;21.056;2023-09-30T00:21:55;17.60;;;12.90;;
67352;SDS011;54238;52.278;21.056;2023-09-30T00:24:28;20.40;;;12.60;;
67352;SDS011;54238;52.278;21.056;2023-09-30T00:26:57;23.60;;;12.60;;
67352;SDS011;54238;52.278;21.056;2023-09-30T00:29:29;21.10;;;12.60;;
67352;SDS011;54238;52.278;21.056;2023-09-30T00:31:56;19.90;;;12.40;;
67352;SDS011;54238;52.278;21.056;2023-09-30T00:34:25;19.60;;;12.60;;
67352;SDS011;54238;52.278;21.056;2023-09-30T00:36:57;23.90;;;12.80;;
67352;SDS011;54238;52.278;21.056;2023-09-30T00:39:24;16.90;;;12.10;;
67352;SDS011;54238;52.278;21.056;2023-09-30T00:41:56;19.90;;;13.10;;
67352;SDS011;54238;52.278;21.056;2023-09-30T00:44:30;17.50;;;11.90;;
67352;SDS011;54238;52.278;21.056;2023-09-30T00:47:00;19.20;;;12.30;;
67352;SDS011;54238;52.278;21.056;2023-09-30T00:49:32;17.80;;;13.10;;
67352;SDS011;54238;52.278;21.056;2023-09-30T00:52:07;20.60;;;12.10;;
67352;SDS011;54238;52.278;21.056;2023-09-30T00:54:35;22.90;;;12.70;;
67352;SDS011;54238;52.278;21.056;2023-09-30T00:57:07;20.40;;;12.30;;
67352;SDS011;54238;52.278;21.056;2023-09-30T00:59:42;16.80;;;11.50;;
67352;SDS011;54238;52.278;21.056;2023-09-30T01:02:14;25.10;;;12.20;;
67352;SDS011;54238;52.278;21.056;2023-09-30T01:04:41;16.90;;;10.50;;
67352;SDS011;54238;52.278;21.056;2023-09-30T01:07:13;20.60;;;12.40;;
67352;SDS011;54238;52.278;21.056;2023-09-30T01:09:43;23.70;;;12.10;;
67352;SDS011;54238;52.278;21.056;2023-09-30T01:12:10;19.90;;;11.60;;
67352;SDS011;54238;52.278;21.056;2023-09-30T01:14:40;18.30;;;11.90;;
67352;SDS011;54238;52.278;21.056;2023-09-30T01:17:11;19.00;;;11.60;;
67352;SDS011;54238;52.278;21.056;2023-09-30T01:19:44;21.10;;;12.80;;
67352;SDS011;54238;52.278;21.056;2023-09-30T01:22:12;17.70;;;11.20;;
67352;SDS011;54238;52.278;21.056;2023-09-30T01:24:43;16.60;;;11.40;;
67352;SDS011;54238;52.278;21.056;2023-09-30T01:27:11;21.60;;;11.20;;
67352;SDS011;54238;52.278;21.056;2023-09-30T01:29:39;20.10;;;11.80;;
67352;SDS011;54238;52.278;21.056;2023-09-30T01:32:09;23.90;;;12.40;;
67352;SDS011;54238;52.278;21.056;2023-09-30T01:34:37;22.60;;;12.20;;
67352;SDS011;54238;52.278;21.056;2023-09-30T01:37:04;18.10;;;11.30;;
67352;SDS011;54238;52.278;21.056;2023-09-30T01:39:38;18.40;;;12.50;;
67352;SDS011;54238;52.278;21.056;2023-09-30T01:42:06;20.40;;;11.70;;
67352;SDS011;54238;52.278;21.056;2023-09-30T01:44:35;16.00;;;11.80;;
67352;SDS011;54238;52.278;21.056;2023-09-30T01:47:03;21.30;;;11.60;;
67352;SDS011;54238;52.278;21.056;2023-09-30T01:49:32;20.70;;;11.90;;
67352;SDS011;54238;52.278;21.056;2023-09-30T01:52:05;16.10;;;11.90;;
67352;SDS011;54238;52.278;21.056;2023-09-30T01:54:33;15.80;;;12.20;;
67352;SDS011;54238;52.278;21.056;2023-09-30T01:57:00;22.00;;;13.20;;
67352;SDS011;54238;52.278;21.056;2023-09-30T01:59:27;21.00;;;12.00;;
67352;SDS011;54238;52.278;21.056;2023-09-30T02:01:57;19.20;;;11.60;;
67352;SDS011;54238;52.278;21.056;2023-09-30T02:04:24;19.20;;;12.40;;
67352;SDS011;54238;52.278;21.056;2023-09-30T02:06:51;18.80;;;12.40;;
67352;SDS011;54238;52.278;21.056;2023-09-30T02:09:18;20.50;;;13.50;;
67352;SDS011;54238;52.278;21.056;2023-09-30T02:11:44;20.40;;;12.20;;
67352;SDS011;54238;52.278;21.056;2023-09-30T02:14:11;17.80;;;12.10;;
67352;SDS011;54238;52.278;21.056;2023-09-30T02:16:43;17.40;;;11.70;;
67352;SDS011;54238;52.278;21.056;2023-09-30T02:19:12;20.90;;;12.50;;
67352;SDS011;54238;52.278;21.056;2023-09-30T02:21:46;15.50;;;11.80;;
67352;SDS011;54238;52.278;21.056;2023-09-30T02:24:18;19.30;;;12.60;;
67352;SDS011;54238;52.278;21.056;2023-09-30T02:26:53;16.60;;;11.90;;
67352;SDS011;54238;52.278;21.056;2023-09-30T02:29:20;16.70;;;11.80;;
67352;SDS011;54238;52.278;21.056;2023-09-30T02:31:49;18.70;;;12.20;;
67352;SDS011;54238;52.278;21.056;2023-09-30T02:34:24;17.10;;;11.80;;
67352;SDS011;54238;52.278;21.056;2023-09-30T02:36:53;28.90;;;14.20;;
67352;SDS011;54238;52.278;21.056;2023-09-30T02:39:22;19.20;;;12.20;;
67352;SDS011;54238;52.278;21.056;2023-09-30T02:41:59;27.50;;;12.00;;
67352;SDS011;54238;52.278;21.056;2023-09-30T02:44:26;20.90;;;13.80;;
67352;SDS011;54238;52.278;21.056;2023-09-30T02:46:53;19.30;;;12.60;;
67352;SDS011;54238;52.278;21.056;2023-09-30T02:49:25;15.40;;;11.70;;
67352;SDS011;54238;52.278;21.056;2023-09-30T02:51:52;22.20;;;12.60;;
67352;SDS011;54238;52.278;21.056;2023-09-30T02:54:21;23.70;;;13.10;;
67352;SDS011;54238;52.278;21.056;2023-09-30T02:56:51;13.40;;;11.40;;
67352;SDS011;54238;52.278;21.056;2023-09-30T02:59:23;23.10;;;12.60;;
67352;SDS011;54238;52.278;21.056;2023-09-30T03:01:50;17.40;;;12.10;;
67352;SDS011;54238;52.278;21.056;2023-09-30T03:04:20;18.20;;;13.20;;
67352;SDS011;54238;52.278;21.056;2023-09-30T03:06:55;19.20;;;12.10;;
67352;SDS011;54238;52.278;21.056;2023-09-30T03:09:27;19.00;;;13.20;;
67352;SDS011;54238;52.278;21.056;2023-09-30T03:11:54;19.30;;;13.10;;
67352;SDS011;54238;52.278;21.056;2023-09-30T03:14:26;17.40;;;12.70;;
67352;SDS011;54238;52.278;21.056;2023-09-30T03:16:58;20.30;;;14.70;;
67352;SDS011;54238;52.278;21.056;2023-09-30T03:19:26;21.30;;;13.50;;
67352;SDS011;54238;52.278;21.056;2023-09-30T03:21:53;25.90;;;15.40;;
67352;SDS011;54238;52.278;21.056;2023-09-30T03:24:20;27.10;;;18.30;;
67352;SDS011;54238;52.278;21.056;2023-09-30T03:26:49;24.90;;;19.30;;
67352;SDS011;54238;52.278;21.056;2023-09-30T03:29:19;26.90;;;19.40;;
67352;SDS011;54238;52.278;21.056;2023-09-30T03:31:45;27.90;;;19.10;;
67352;SDS011;54238;52.278;21.056;2023-09-30T03:34:15;28.60;;;20.50;;
67352;SDS011;54238;52.278;21.056;2023-09-30T03:36:43;28.70;;;19.80;;
67352;SDS011;54238;52.278;21.056;2023-09-30T03:39:11;26.60;;;20.40;;
67352;SDS011;54238;52.278;21.056;2023-09-30T03:41:42;26.90;;;20.40;;
67352;SDS011;54238;52.278;21.056;2023-09-30T03:44:14;23.50;;;19.10;;
67352;SDS011;54238;52.278;21.056;2023-09-30T03:46:45;25.60;;;19.20;;
67352;SDS011;54238;52.278;21.056;2023-09-30T03:49:14;27.40;;;19.20;;
67352;SDS011;54238;52.278;21.056;2023-09-30T03:51:44;23.60;;;18.10;;
67352;SDS011;54238;52.278;21.056;2023-09-30T03:54:20;23.60;;;17.80;;
67352;SDS011;54238;52.278;21.056;2023-09-30T03:56:49;26.40;;;18.50;;
67352;SDS011;54238;52.278;21.056;2023-09-30T03:59:17;26.10;;;18.20;;
67352;SDS011;54238;52.278;21.056;2023-09-30T04:01:45;26.90;;;18.20;;
67352;SDS011;54238;52.278;21.056;2023-09-30T04:04:13;27.00;;;19.00;;
67352;SDS011;54238;52.278;21.056;2023-09-30T04:06:43;28.30;;;19.00;;
67352;SDS011;54238;52.278;21.056;2023-09-30T04:09:10;29.60;;;19.40;;
67352;SDS011;54238;52.278;21.056;2023-09-30T04:11:40;26.60;;;17.60;;
67352;SDS011;54238;52.278;21.056;2023-09-30T04:14:09;25.40;;;18.90;;
67352;SDS011;54238;52.278;21.056;2023-09-30T04:16:46;28.20;;;18.90;;
67352;SDS011;54238;52.278;21.056;2023-09-30T04:19:17;22.50;;;16.30;;
67352;SDS011;54238;52.278;21.056;2023-09-30T04:21:52;25.60;;;17.30;;
67352;SDS011;54238;52.278;21.056;2023-09-30T04:24:21;26.00;;;16.90;;
67352;SDS011;54238;52.278;21.056;2023-09-30T04:26:49;30.00;;;18.70;;
67352;SDS011;54238;52.278;21.056;2023-09-30T04:31:59;25.30;;;16.80;;
67352;SDS011;54238;52.278;21.056;2023-09-30T04:34:26;21.90;;;16.60;;
67352;SDS011;54238;52.278;21.056;2023-09-30T04:36:58;21.90;;;16.50;;
67352;SDS011;54238;52.278;21.056;2023-09-30T04:39:33;26.80;;;16.40;;
67352;SDS011;54238;52.278;21.056;2023-09-30T04:42:06;23.40;;;15.90;;
67352;SDS011;54238;52.278;21.056;2023-09-30T04:44:38;25.70;;;16.70;;
67352;SDS011;54238;52.278;21.056;2023-09-30T04:47:08;19.70;;;14.40;;
67352;SDS011;54238;52.278;21.056;2023-09-30T04:49:35;20.40;;;15.90;;
67352;SDS011;54238;52.278;21.056;2023-09-30T04:52:05;19.80;;;15.00;;
67352;SDS011;54238;52.278;21.056;2023-09-30T04:54:35;22.30;;;13.50;;
67352;SDS011;54238;52.278;21.056;2023-09-30T04:57:04;18.90;;;14.10;;
67352;SDS011;54238;52.278;21.056;2023-09-30T04:59:32;17.70;;;12.70;;
67352;SDS011;54238;52.278;21.056;2023-09-30T05:02:04;16.40;;;12.20;;
67352;SDS011;54238;52.278;21.056;2023-09-30T05:04:38;18.20;;;11.70;;
67352;SDS011;54238;52.278;21.056;2023-09-30T05:09:40;17.80;;;10.60;;
67352;SDS011;54238;52.278;21.056;2023-09-30T05:12:10;15.40;;;10.60;;
67352;SDS011;54238;52.278;21.056;2023-09-30T05:14:42;12.30;;;9.60;;
67352;SDS011;54238;52.278;21.056;2023-09-30T05:17:10;16.40;;;10.90;;
67352;SDS011;54238;52.278;21.056;2023-09-30T05:19:41;18.40;;;11.50;;
67352;SDS011;54238;52.278;21.056;2023-09-30T05:24:51;18.70;;;12.00;;
67352;SDS011;54238;52.278;21.056;2023-09-30T05:27:25;22.10;;;13.00;;
67352;SDS011;54238;52.278;21.056;2023-09-30T05:29:52;21.80;;;12.60;;
67352;SDS011;54238;52.278;21.056;2023-09-30T05:32:19;21.10;;;12.70;;
67352;SDS011;54238;52.278;21.056;2023-09-30T05:34:51;16.70;;;12.00;;
67352;SDS011;54238;52.278;21.056;2023-09-30T05:37:22;19.10;;;12.80;;
67352;SDS011;54238;52.278;21.056;2023-09-30T05:39:55;18.80;;;12.50;;
67352;SDS011;54238;52.278;21.056;2023-09-30T05:42:24;19.30;;;12.10;;
67352;SDS011;54238;52.278;21.056;2023-09-30T05:44:51;19.30;;;11.90;;
67352;SDS011;54238;52.278;21.056;2023-09-30T05:47:23;20.30;;;11.80;;
67352;SDS011;54238;52.278;21.056;2023-09-30T05:49:52;16.40;;;11.20;;
67352;SDS011;54238;52.278;21.056;2023-09-30T05:52:24;15.70;;;10.90;;
67352;SDS011;54238;52.278;21.056;2023-09-30T05:54:58;18.90;;;11.10;;
67352;SDS011;54238;52.278;21.056;2023-09-30T05:57:28;20.20;;;11.40;;
67352;SDS011;54238;52.278;21.056;2023-09-30T05:59:57;15.30;;;10.40;;
67352;SDS011;54238;52.278;21.056;2023-09-30T06:02:30;16.40;;;10.80;;
67352;SDS011;54238;52.278;21.056;2023-09-30T06:05:00;13.40;;;10.30;;
67352;SDS011;54238;52.278;21.056;2023-09-30T06:07:27;20.40;;;10.80;;
67352;SDS011;54238;52.278;21.056;2023-09-30T06:09:55;14.60;;;10.90;;
67352;SDS011;54238;52.278;21.056;2023-09-30T06:12:22;16.20;;;9.80;;
67352;SDS011;54238;52.278;21.056;2023-09-30T06:14:51;16.90;;;8.80;;
67352;SDS011;54238;52.278;21.056;2023-09-30T06:17:23;15.40;;;8.20;;
67352;SDS011;54238;52.278;21.056;2023-09-30T06:19:50;14.60;;;8.20;;
67352;SDS011;54238;52.278;21.056;2023-09-30T06:22:22;14.30;;;8.10;;
67352;SDS011;54238;52.278;21.056;2023-09-30T06:24:50;12.20;;;8.50;;
67352;SDS011;54238;52.278;21.056;2023-09-30T06:27:17;16.40;;;9.40;;
67352;SDS011;54238;52.278;21.056;2023-09-30T06:29:48;12.30;;;8.80;;
67352;SDS011;54238;52.278;21.056;2023-09-30T06:32:15;13.50;;;9.60;;
67352;SDS011;54238;52.278;21.056;2023-09-30T06:34:53;15.20;;;9.00;;
67352;SDS011;54238;52.278;21.056;2023-09-30T06:37:27;14.50;;;9.10;;
67352;SDS011;54238;52.278;21.056;2023-09-30T06:39:59;14.80;;;10.10;;
67352;SDS011;54238;52.278;21.056;2023-09-30T06:42:29;16.50;;;10.20;;
67352;SDS011;54238;52.278;21.056;2023-09-30T06:44:56;16.80;;;10.40;;
67352;SDS011;54238;52.278;21.056;2023-09-30T06:47:26;20.10;;;10.10;;
67352;SDS011;54238;52.278;21.056;2023-09-30T06:50:03;13.50;;;9.10;;
67352;SDS011;54238;52.278;21.056;2023-09-30T06:52:40;18.20;;;9.90;;
67352;SDS011;54238;52.278;21.056;2023-09-30T06:55:09;15.50;;;9.70;;
67352;SDS011;54238;52.278;21.056;2023-09-30T06:57:48;14.00;;;10.60;;
67352;SDS011;54238;52.278;21.056;2023-09-30T07:00:18;19.90;;;9.60;;
67352;SDS011;54238;52.278;21.056;2023-09-30T07:02:48;16.30;;;10.60;;
67352;SDS011;54238;52.278;21.056;2023-09-30T07:05:18;15.00;;;11.40;;
67352;SDS011;54238;52.278;21.056;2023-09-30T07:07:51;13.70;;;10.80;;
67352;SDS011;54238;52.278;21.056;2023-09-30T07:10:21;15.70;;;10.10;;
67352;SDS011;54238;52.278;21.056;2023-09-30T07:12:50;21.00;;;11.60;;
67352;SDS011;54238;52.278;21.056;2023-09-30T07:15:17;16.30;;;10.40;;
67352;SDS011;54238;52.278;21.056;2023-09-30T07:17:45;14.80;;;10.60;;
67352;SDS011;54238;52.278;21.056;2023-09-30T07:20:15;16.60;;;11.40;;
67352;SDS011;54238;52.278;21.056;2023-09-30T07:22:42;15.90;;;11.50;;
67352;SDS011;54238;52.278;21.056;2023-09-30T07:25:12;17.00;;;11.90;;
67352;SDS011;54238;52.278;21.056;2023-09-30T07:27:43;21.90;;;12.10;;
67352;SDS011;54238;52.278;21.056;2023-09-30T07:30:18;15.50;;;12.70;;
67352;SDS011;54238;52.278;21.056;2023-09-30T07:32:47;14.50;;;11.70;;
67352;SDS011;54238;52.278;21.056;2023-09-30T07:35:14;15.10;;;12.60;;
67352;SDS011;54238;52.278;21.056;2023-09-30T07:37:43;15.40;;;10.90;;
67352;SDS011;54238;52.278;21.056;2023-09-30T07:40:11;16.40;;;13.30;;
67352;SDS011;54238;52.278;21.056;2023-09-30T07:42:41;17.90;;;12.60;;
67352;SDS011;54238;52.278;21.056;2023-09-30T07:45:12;14.80;;;11.90;;
67352;SDS011;54238;52.278;21.056;2023-09-30T07:47:46;18.40;;;12.30;;
67352;SDS011;54238;52.278;21.056;2023-09-30T07:50:13;19.30;;;13.70;;
67352;SDS011;54238;52.278;21.056;2023-09-30T07:52:48;19.80;;;13.50;;
67352;SDS011;54238;52.278;21.056;2023-09-30T07:55:15;19.90;;;14.30;;
67352;SDS011;54238;52.278;21.056;2023-09-30T07:57:48;18.70;;;13.50;;
67352;SDS011;54238;52.278;21.056;2023-09-30T08:00:17;16.60;;;12.60;;
67352;SDS011;54238;52.278;21.056;2023-09-30T08:02:50;15.50;;;13.10;;
67352;SDS011;54238;52.278;21.056;2023-09-30T08:05:18;20.40;;;13.10;;
67352;SDS011;54238;52.278;21.056;2023-09-30T08:07:53;22.20;;;14.40;;
67352;SDS011;54238;52.278;21.056;2023-09-30T08:10:25;23.40;;;14.10;;
67352;SDS011;54238;52.278;21.056;2023-09-30T08:12:59;17.90;;;14.00;;
67352;SDS011;54238;52.278;21.056;2023-09-30T08:15:35;15.10;;;12.80;;
67352;SDS011;54238;52.278;21.056;2023-09-30T08:20:35;16.10;;;13.40;;
67352;SDS011;54238;52.278;21.056;2023-09-30T08:23:06;22.40;;;14.60;;
67352;SDS011;54238;52.278;21.056;2023-09-30T08:25:33;23.80;;;14.40;;
67352;SDS011;54238;52.278;21.056;2023-09-30T08:28:05;24.30;;;17.20;;
67352;SDS011;54238;52.278;21.056;2023-09-30T08:30:35;23.60;;;16.60;;
67352;SDS011;54238;52.278;21.056;2023-09-30T08:33:04;25.40;;;16.90;;
67352;SDS011;54238;52.278;21.056;2023-09-30T08:35:37;21.90;;;15.80;;
67352;SDS011;54238;52.278;21.056;2023-09-30T08:38:07;27.30;;;16.60;;
67352;SDS011;54238;52.278;21.056;2023-09-30T08:40:42;18.20;;;16.20;;
67352;SDS011;54238;52.278;21.056;2023-09-30T08:43:11;23.00;;;14.70;;
67352;SDS011;54238;52.278;21.056;2023-09-30T08:45:44;21.40;;;16.40;;
67352;SDS011;54238;52.278;21.056;2023-09-30T08:48:22;21.40;;;15.50;;
67352;SDS011;54238;52.278;21.056;2023-09-30T08:50:54;23.80;;;16.00;;
67352;SDS011;54238;52.278;21.056;2023-09-30T08:53:28;21.20;;;15.10;;
67352;SDS011;54238;52.278;21.056;2023-09-30T08:56:02;18.00;;;16.10;;
67352;SDS011;54238;52.278;21.056;2023-09-30T08:58:37;23.50;;;15.70;;
67352;SDS011;54238;52.278;21.056;2023-09-30T09:01:05;22.90;;;17.40;;
67352;SDS011;54238;52.278;21.056;2023-09-30T09:03:37;20.00;;;17.20;;
67352;SDS011;54238;52.278;21.056;2023-09-30T09:06:07;19.90;;;16.30;;
67352;SDS011;54238;52.278;21.056;2023-09-30T09:08:34;21.60;;;17.30;;
67352;SDS011;54238;52.278;21.056;2023-09-30T09:11:10;22.50;;;18.10;;
67352;SDS011;54238;52.278;21.056;2023-09-30T09:13:52;23.00;;;16.10;;
67352;SDS011;54238;52.278;21.056;2023-09-30T09:16:26;28.30;;;18.80;;
67352;SDS011;54238;52.278;21.056;2023-09-30T09:18:53;23.10;;;17.40;;
67352;SDS011;54238;52.278;21.056;2023-09-30T09:21:23;22.10;;;17.80;;
67352;SDS011;54238;52.278;21.056;2023-09-30T09:23:55;25.00;;;17.30;;
67352;SDS011;54238;52.278;21.056;2023-09-30T09:26:31;24.10;;;18.70;;
67352;SDS011;54238;52.278;21.056;2023-09-30T09:29:05;22.00;;;18.30;;
67352;SDS011;54238;52.278;21.056;2023-09-30T09:31:35;28.80;;;17.10;;
67352;SDS011;54238;52.278;21.056;2023-09-30T09:34:15;24.20;;;18.00;;
67352;SDS011;54238;52.278;21.056;2023-09-30T09:36:44;26.10;;;18.10;;
67352;SDS011;54238;52.278;21.056;2023-09-30T09:39:29;22.60;;;17.60;;
67352;SDS011;54238;52.278;21.056;2023-09-30T09:42:02;23.90;;;17.80;;
67352;SDS011;54238;52.278;21.056;2023-09-30T09:44:30;24.10;;;17.70;;
67352;SDS011;54238;52.278;21.056;2023-09-30T09:47:01;22.10;;;17.40;;
67352;SDS011;54238;52.278;21.056;2023-09-30T09:49:32;19.90;;;17.30;;
67352;SDS011;54238;52.278;21.056;2023-09-30T09:52:02;26.30;;;18.40;;
67352;SDS011;54238;52.278;21.056;2023-09-30T09:54:31;22.00;;;18.60;;
67352;SDS011;54238;52.278;21.056;2023-09-30T09:57:11;24.80;;;18.60;;
67352;SDS011;54238;52.278;21.056;2023-09-30T09:59:44;21.50;;;18.10;;
67352;SDS011;54238;52.278;21.056;2023-09-30T10:02:16;24.70;;;19.40;;
67352;SDS011;54238;52.278;21.056;2023-09-30T10:04:50;21.30;;;18.20;;
67352;SDS011;54238;52.278;21.056;2023-09-30T10:07:26;25.90;;;18.40;;
67352;SDS011;54238;52.278;21.056;2023-09-30T10:09:58;20.00;;;17.50;;
67352;SDS011;54238;52.278;21.056;2023-09-30T10:12:38;24.80;;;17.60;;
67352;SDS011;54238;52.278;21.056;2023-09-30T10:17:59;20.20;;;16.60;;
67352;SDS011;54238;52.278;21.056;2023-09-30T10:20:37;21.10;;;16.40;;
67352;SDS011;54238;52.278;21.056;2023-09-30T10:25:47;21.80;;;16.50;;
67352;SDS011;54238;52.278;21.056;2023-09-30T10:36:40;11.40;;;8.60;;
67352;SDS011;54238;52.278;21.056;2023-09-30T10:39:12;11.20;;;7.70;;
67352;SDS011;54238;52.278;21.056;2023-09-30T10:42:04;9.40;;;6.60;;
67352;SDS011;54238;52.278;21.056;2023-09-30T10:44:32;14.00;;;5.70;;
67352;SDS011;54238;52.278;21.056;2023-09-30T10:49:57;8.40;;;5.10;;
67352;SDS011;54238;52.278;21.056;2023-09-30T10:52:25;6.10;;;3.60;;
67352;SDS011;54238;52.278;21.056;2023-09-30T10:54:53;5.70;;;3.20;;
67352;SDS011;54238;52.278;21.056;2023-09-30T10:57:29;7.40;;;3.40;;
67352;SDS011;54238;52.278;21.056;2023-09-30T11:00:15;8.20;;;3.20;;
67352;SDS011;54238;52.278;21.056;2023-09-30T11:02:51;6.90;;;3.20;;
67352;SDS011;54238;52.278;21.056;2023-09-30T11:05:19;9.10;;;2.90;;
67352;SDS011;54238;52.278;21.056;2023-09-30T11:07:53;6.30;;;3.20;;
67352;SDS011;54238;52.278;21.056;2023-09-30T11:10:25;5.80;;;2.90;;
67352;SDS011;54238;52.278;21.056;2023-09-30T11:12:58;7.80;;;3.30;;
67352;SDS011;54238;52.278;21.056;2023-09-30T11:15:32;6.50;;;3.10;;
67352;SDS011;54238;52.278;21.056;2023-09-30T11:18:15;6.50;;;3.20;;
67352;SDS011;54238;52.278;21.056;2023-09-30T11:20:46;6.90;;;3.10;;
67352;SDS011;54238;52.278;21.056;2023-09-30T11:23:15;6.00;;;3.10;;
67352;SDS011;54238;52.278;21.056;2023-09-30T11:25:49;7.80;;;3.80;;
67352;SDS011;54238;52.278;21.056;2023-09-30T11:28:18;6.40;;;3.30;;
67352;SDS011;54238;52.278;21.056;2023-09-30T11:31:00;6.80;;;3.50;;
67352;SDS011;54238;52.278;21.056;2023-09-30T11:33:55;8.40;;;5.20;;
67352;SDS011;54238;52.278;21.056;2023-09-30T11:36:24;9.70;;;4.60;;
67352;SDS011;54238;52.278;21.056;2023-09-30T11:38:57;7.70;;;4.00;;
67352;SDS011;54238;52.278;21.056;2023-09-30T11:41:36;6.00;;;3.30;;
67352;SDS011;54238;52.278;21.056;2023-09-30T11:44:12;7.80;;;3.00;;
67352;SDS011;54238;52.278;21.056;2023-09-30T11:46:51;8.60;;;3.80;;
67352;SDS011;54238;52.278;21.056;2023-09-30T11:52:03;7.90;;;3.50;;
67352;SDS011;54238;52.278;21.056;2023-09-30T11:57:18;10.80;;;3.00;;
67352;SDS011;54238;52.278;21.056;2023-09-30T11:59:50;12.10;;;3.50;;
67352;SDS011;54238;52.278;21.056;2023-09-30T12:02:20;10.00;;;3.90;;
67352;SDS011;54238;52.278;21.056;2023-09-30T12:04:49;7.90;;;3.50;;
67352;SDS011;54238;52.278;21.056;2023-09-30T12:07:19;8.20;;;3.50;;
67352;SDS011;54238;52.278;21.056;2023-09-30T12:09:50;8.60;;;3.40;;
67352;SDS011;54238;52.278;21.056;2023-09-30T12:12:18;10.10;;;3.30;;
67352;SDS011;54238;52.278;21.056;2023-09-30T12:14:47;8.00;;;3.20;;
67352;SDS011;54238;52.278;21.056;2023-09-30T12:17:17;6.90;;;3.10;;
67352;SDS011;54238;52.278;21.056;2023-09-30T12:19:52;6.50;;;3.00;;
67352;SDS011;54238;52.278;21.056;2023-09-30T12:22:21;8.40;;;3.00;;
67352;SDS011;54238;52.278;21.056;2023-09-30T12:24:54;9.40;;;3.10;;
67352;SDS011;54238;52.278;21.056;2023-09-30T12:27:26;9.50;;;3.50;;
67352;SDS011;54238;52.278;21.056;2023-09-30T12:29:53;7.70;;;3.00;;
67352;SDS011;54238;52.278;21.056;2023-09-30T12:32:27;7.30;;;3.20;;
67352;SDS011;54238;52.278;21.056;2023-09-30T12:35:02;7.90;;;3.30;;
67352;SDS011;54238;52.278;21.056;2023-09-30T12:37:32;7.40;;;3.10;;
67352;SDS011;54238;52.278;21.056;2023-09-30T12:40:01;8.40;;;3.50;;
67352;SDS011;54238;52.278;21.056;2023-09-30T12:42:32;9.40;;;3.50;;
67352;SDS011;54238;52.278;21.056;2023-09-30T12:45:02;7.70;;;3.30;;
67352;SDS011;54238;52.278;21.056;2023-09-30T12:47:30;9.90;;;3.50;;
67352;SDS011;54238;52.278;21.056;2023-09-30T12:50:02;12.30;;;4.10;;
67352;SDS011;54238;52.278;21.056;2023-09-30T12:52:31;10.50;;;3.70;;
67352;SDS011;54238;52.278;21.056;2023-09-30T12:54:59;11.90;;;3.50;;
67352;SDS011;54238;52.278;21.056;2023-09-30T12:57:32;12.90;;;3.40;;
67352;SDS011;54238;52.278;21.056;2023-09-30T12:59:59;11.00;;;3.60;;
67352;SDS011;54238;52.278;21.056;2023-09-30T13:02:30;12.90;;;3.10;;
67352;SDS011;54238;52.278;21.056;2023-09-30T13:04:57;8.10;;;3.20;;
67352;SDS011;54238;52.278;21.056;2023-09-30T13:07:25;10.30;;;3.80;;
67352;SDS011;54238;52.278;21.056;2023-09-30T13:09:55;9.90;;;3.50;;
67352;SDS011;54238;52.278;21.056;2023-09-30T13:12:26;11.50;;;3.90;;
67352;SDS011;54238;52.278;21.056;2023-09-30T13:14:56;7.90;;;3.10;;
67352;SDS011;54238;52.278;21.056;2023-09-30T13:17:28;9.80;;;3.80;;
67352;SDS011;54238;52.278;21.056;2023-09-30T13:20:00;8.20;;;3.40;;
67352;SDS011;54238;52.278;21.056;2023-09-30T13:25:05;7.80;;;3.50;;
67352;SDS011;54238;52.278;21.056;2023-09-30T13:27:43;17.10;;;3.40;;
67352;SDS011;54238;52.278;21.056;2023-09-30T13:30:15;16.80;;;4.20;;
67352;SDS011;54238;52.278;21.056;2023-09-30T13:32:45;8.10;;;3.60;;
67352;SDS011;54238;52.278;21.056;2023-09-30T13:35:13;11.00;;;3.60;;
67352;SDS011;54238;52.278;21.056;2023-09-30T13:37:45;8.30;;;3.40;;
67352;SDS011;54238;52.278;21.056;2023-09-30T13:40:12;7.60;;;3.40;;
67352;SDS011;54238;52.278;21.056;2023-09-30T13:42:42;6.90;;;3.00;;
67352;SDS011;54238;52.278;21.056;2023-09-30T13:45:10;11.70;;;3.50;;
67352;SDS011;54238;52.278;21.056;2023-09-30T13:47:42;6.90;;;3.00;;
67352;SDS011;54238;52.278;21.056;2023-09-30T13:50:15;9.30;;;3.10;;
67352;SDS011;54238;52.278;21.056;2023-09-30T13:52:47;8.30;;;3.30;;
67352;SDS011;54238;52.278;21.056;2023-09-30T13:55:14;7.80;;;3.40;;
67352;SDS011;54238;52.278;21.056;2023-09-30T13:57:48;11.00;;;3.50;;
67352;SDS011;54238;52.278;21.056;2023-09-30T14:00:18;10.20;;;3.20;;
67352;SDS011;54238;52.278;21.056;2023-09-30T14:02:45;8.30;;;3.40;;
67352;SDS011;54238;52.278;21.056;2023-09-30T14:05:15;10.40;;;3.50;;
67352;SDS011;54238;52.278;21.056;2023-09-30T14:07:43;9.30;;;3.10;;
67352;SDS011;54238;52.278;21.056;2023-09-30T14:10:13;7.90;;;3.30;;
67352;SDS011;54238;52.278;21.056;2023-09-30T14:12:45;7.20;;;2.80;;
67352;SDS011;54238;52.278;21.056;2023-09-30T14:15:17;8.10;;;3.00;;
67352;SDS011;54238;52.278;21.056;2023-09-30T14:17:47;7.10;;;3.20;;
67352;SDS011;54238;52.278;21.056;2023-09-30T14:20:19;6.30;;;2.60;;
67352;SDS011;54238;52.278;21.056;2023-09-30T14:22:51;9.80;;;2.90;;
67352;SDS011;54238;52.278;21.056;2023-09-30T14:25:19;9.60;;;2.70;;
67352;SDS011;54238;52.278;21.056;2023-09-30T14:27:49;6.10;;;2.90;;
67352;SDS011;54238;52.278;21.056;2023-09-30T14:30:23;7.90;;;3.40;;
67352;SDS011;54238;52.278;21.056;2023-09-30T14:32:56;11.00;;;3.70;;
67352;SDS011;54238;52.278;21.056;2023-09-30T14:35:25;8.50;;;3.40;;
67352;SDS011;54238;52.278;21.056;2023-09-30T14:37:55;8.10;;;3.40;;
67352;SDS011;54238;52.278;21.056;2023-09-30T14:40:23;6.70;;;3.20;;
67352;SDS011;54238;52.278;21.056;2023-09-30T14:42:51;7.90;;;3.10;;
67352;SDS011;54238;52.278;21.056;2023-09-30T14:45:20;8.50;;;3.30;;
67352;SDS011;54238;52.278;21.056;2023-09-30T14:47:51;8.40;;;3.60;;
67352;SDS011;54238;52.278;21.056;2023-09-30T14:52:54;9.50;;;3.30;;
67352;SDS011;54238;52.278;21.056;2023-09-30T14:55:21;12.40;;;3.60;;
67352;SDS011;54238;52.278;21.056;2023-09-30T14:57:50;10.70;;;3.40;;
67352;SDS011;54238;52.278;21.056;2023-09-30T15:00:20;12.00;;;3.40;;
67352;SDS011;54238;52.278;21.056;2023-09-30T15:02:54;8.00;;;2.80;;
67352;SDS011;54238;52.278;21.056;2023-09-30T15:05:23;12.50;;;3.50;;
67352;SDS011;54238;52.278;21.056;2023-09-30T15:07:51;9.20;;;3.00;;
67352;SDS011;54238;52.278;21.056;2023-09-30T15:10:18;8.20;;;3.30;;
67352;SDS011;54238;52.278;21.056;2023-09-30T15:12:48;10.20;;;3.40;;
67352;SDS011;54238;52.278;21.056;2023-09-30T15:15:17;9.30;;;3.40;;